sensor_id;sensor_type;location;lat;lon;timestamp;P1;durP1;ratioP1;P2;durP2;ratioP2
18931;SDS011;9598;50.954;3.112;2023-06-19T00:02:13;10.30;;;9.23;;
18931;SDS011;9598;50.954;3.112;2023-06-19T00:07:15;10.25;;;9.25;;
18931;SDS011;9598;50.954;3.112;2023-06-19T00:12:17;12.13;;;11.02;;
18931;SDS011;9598;50.954;3.112;2023-06-19T00:17:20;12.85;;;11.65;;
18931;SDS011;9598;50.954;3.112;2023-06-19T00:22:22;12.52;;;11.32;;
18931;SDS011;9598;50.954;3.112;2023-06-19T00:27:26;15.10;;;13.65;;
18931;SDS011;9598;50.954;3.112;2023-06-19T00:32:29;16.40;;;14.80;;
18931;SDS011;9598;50.954;3.112;2023-06-19T00:37:31;16.02;;;14.43;;
18931;SDS011;9598;50.954;3.112;2023-06-19T00:42:33;14.07;;;12.38;;
18931;SDS011;9598;50.954;3.112;2023-06-19T00:47:37;9.90;;;8.90;;
18931;SDS011;9598;50.954;3.112;2023-06-19T00:52:39;11.27;;;10.18;;
18931;SDS011;9598;50.954;3.112;2023-06-19T00:57:43;12.00;;;10.95;;
18931;SDS011;9598;50.954;3.112;2023-06-19T01:02:47;13.10;;;11.65;;
18931;SDS011;9598;50.954;3.112;2023-06-19T01:07:51;9.32;;;8.43;;
18931;SDS011;9598;50.954;3.112;2023-06-19T01:13:00;7.63;;;6.95;;
18931;SDS011;9598;50.954;3.112;2023-06-19T01:18:08;6.45;;;5.88;;
18931;SDS011;9598;50.954;3.112;2023-06-19T01:23:13;6.85;;;6.15;;
18931;SDS011;9598;50.954;3.112;2023-06-19T01:28:16;8.10;;;7.38;;
18931;SDS011;9598;50.954;3.112;2023-06-19T01:33:19;8.40;;;7.70;;
18931;SDS011;9598;50.954;3.112;2023-06-19T01:38:27;9.32;;;8.60;;
18931;SDS011;9598;50.954;3.112;2023-06-19T01:43:30;12.43;;;11.35;;
18931;SDS011;9598;50.954;3.112;2023-06-19T01:48:34;13.77;;;12.48;;
18931;SDS011;9598;50.954;3.112;2023-06-19T01:53:38;15.52;;;14.05;;
18931;SDS011;9598;50.954;3.112;2023-06-19T01:58:40;17.13;;;15.63;;
18931;SDS011;9598;50.954;3.112;2023-06-19T02:03:42;18.08;;;16.48;;
18931;SDS011;9598;50.954;3.112;2023-06-19T02:08:45;18.65;;;16.77;;
18931;SDS011;9598;50.954;3.112;2023-06-19T02:13:47;20.05;;;17.92;;
18931;SDS011;9598;50.954;3.112;2023-06-19T02:18:49;21.63;;;19.52;;
18931;SDS011;9598;50.954;3.112;2023-06-19T02:23:53;23.02;;;21.13;;
18931;SDS011;9598;50.954;3.112;2023-06-19T02:28:56;24.92;;;22.63;;
18931;SDS011;9598;50.954;3.112;2023-06-19T02:33:58;26.75;;;24.10;;
18931;SDS011;9598;50.954;3.112;2023-06-19T02:39:01;27.08;;;24.67;;
18931;SDS011;9598;50.954;3.112;2023-06-19T02:44:05;26.88;;;24.27;;
18931;SDS011;9598;50.954;3.112;2023-06-19T02:49:07;27.77;;;24.98;;
18931;SDS011;9598;50.954;3.112;2023-06-19T02:54:11;30.00;;;27.17;;
18931;SDS011;9598;50.954;3.112;2023-06-19T02:59:13;29.73;;;26.48;;
18931;SDS011;9598;50.954;3.112;2023-06-19T03:04:15;29.30;;;26.40;;
18931;SDS011;9598;50.954;3.112;2023-06-19T03:09:19;30.48;;;27.58;;
18931;SDS011;9598;50.954;3.112;2023-06-19T03:14:21;31.13;;;27.92;;
18931;SDS011;9598;50.954;3.112;2023-06-19T03:19:24;30.77;;;27.70;;
18931;SDS011;9598;50.954;3.112;2023-06-19T03:24:27;34.83;;;31.33;;
18931;SDS011;9598;50.954;3.112;2023-06-19T03:29:41;32.65;;;29.45;;
18931;SDS011;9598;50.954;3.112;2023-06-19T03:34:46;32.08;;;28.90;;
18931;SDS011;9598;50.954;3.112;2023-06-19T03:39:50;31.27;;;28.10;;
18931;SDS011;9598;50.954;3.112;2023-06-19T03:44:52;31.63;;;28.35;;
18931;SDS011;9598;50.954;3.112;2023-06-19T03:49:54;32.03;;;28.73;;
18931;SDS011;9598;50.954;3.112;2023-06-19T03:54:58;32.53;;;29.23;;
18931;SDS011;9598;50.954;3.112;2023-06-19T04:00:00;32.38;;;28.98;;
18931;SDS011;9598;50.954;3.112;2023-06-19T04:05:13;32.40;;;28.90;;
18931;SDS011;9598;50.954;3.112;2023-06-19T04:10:17;32.10;;;28.80;;
18931;SDS011;9598;50.954;3.112;2023-06-19T04:15:19;31.75;;;28.48;;
18931;SDS011;9598;50.954;3.112;2023-06-19T04:20:21;31.10;;;28.02;;
18931;SDS011;9598;50.954;3.112;2023-06-19T04:25:25;31.30;;;28.17;;
18931;SDS011;9598;50.954;3.112;2023-06-19T04:30:27;28.90;;;25.90;;
18931;SDS011;9598;50.954;3.112;2023-06-19T04:35:29;31.58;;;26.27;;
18931;SDS011;9598;50.954;3.112;2023-06-19T04:40:32;29.27;;;26.17;;
18931;SDS011;9598;50.954;3.112;2023-06-19T04:45:34;28.95;;;25.85;;
18931;SDS011;9598;50.954;3.112;2023-06-19T04:50:36;29.88;;;25.88;;
18931;SDS011;9598;50.954;3.112;2023-06-19T04:55:40;27.02;;;23.98;;
18931;SDS011;9598;50.954;3.112;2023-06-19T05:00:43;28.48;;;25.50;;
18931;SDS011;9598;50.954;3.112;2023-06-19T05:05:49;28.65;;;25.65;;
18931;SDS011;9598;50.954;3.112;2023-06-19T05:10:54;29.10;;;26.17;;
18931;SDS011;9598;50.954;3.112;2023-06-19T05:15:56;28.73;;;25.65;;
18931;SDS011;9598;50.954;3.112;2023-06-19T05:20:58;28.40;;;25.23;;
18931;SDS011;9598;50.954;3.112;2023-06-19T05:26:02;28.67;;;25.67;;
18931;SDS011;9598;50.954;3.112;2023-06-19T05:31:04;29.75;;;26.77;;
18931;SDS011;9598;50.954;3.112;2023-06-19T05:36:06;26.20;;;23.48;;
18931;SDS011;9598;50.954;3.112;2023-06-19T05:41:09;27.52;;;24.65;;
18931;SDS011;9598;50.954;3.112;2023-06-19T05:46:11;27.75;;;24.90;;
18931;SDS011;9598;50.954;3.112;2023-06-19T05:51:13;26.67;;;23.88;;
18931;SDS011;9598;50.954;3.112;2023-06-19T05:56:17;26.75;;;23.92;;
18931;SDS011;9598;50.954;3.112;2023-06-19T06:01:19;30.55;;;23.80;;
18931;SDS011;9598;50.954;3.112;2023-06-19T06:06:22;26.13;;;23.48;;
18931;SDS011;9598;50.954;3.112;2023-06-19T06:11:25;24.58;;;21.98;;
18931;SDS011;9598;50.954;3.112;2023-06-19T06:16:27;23.70;;;21.30;;
18931;SDS011;9598;50.954;3.112;2023-06-19T06:21:29;22.05;;;19.67;;
18931;SDS011;9598;50.954;3.112;2023-06-19T06:26:33;23.90;;;21.40;;
18931;SDS011;9598;50.954;3.112;2023-06-19T06:31:37;22.38;;;19.83;;
18931;SDS011;9598;50.954;3.112;2023-06-19T06:36:41;23.67;;;21.13;;
18931;SDS011;9598;50.954;3.112;2023-06-19T06:41:45;23.70;;;21.35;;
18931;SDS011;9598;50.954;3.112;2023-06-19T06:46:47;25.17;;;21.50;;
18931;SDS011;9598;50.954;3.112;2023-06-19T06:51:49;22.17;;;19.98;;
18931;SDS011;9598;50.954;3.112;2023-06-19T06:56:52;22.48;;;20.23;;
18931;SDS011;9598;50.954;3.112;2023-06-19T07:01:56;23.60;;;21.10;;
18931;SDS011;9598;50.954;3.112;2023-06-19T07:06:58;25.05;;;19.98;;
18931;SDS011;9598;50.954;3.112;2023-06-19T07:12:02;22.70;;;20.35;;
18931;SDS011;9598;50.954;3.112;2023-06-19T07:17:05;20.38;;;18.48;;
18931;SDS011;9598;50.954;3.112;2023-06-19T07:22:07;22.85;;;20.50;;
18931;SDS011;9598;50.954;3.112;2023-06-19T07:27:11;21.52;;;19.42;;
18931;SDS011;9598;50.954;3.112;2023-06-19T07:32:13;22.33;;;20.15;;
18931;SDS011;9598;50.954;3.112;2023-06-19T07:37:15;22.80;;;20.45;;
18931;SDS011;9598;50.954;3.112;2023-06-19T07:42:20;23.15;;;20.75;;
18931;SDS011;9598;50.954;3.112;2023-06-19T07:47:22;23.52;;;21.27;;
18931;SDS011;9598;50.954;3.112;2023-06-19T07:52:24;23.67;;;21.33;;
18931;SDS011;9598;50.954;3.112;2023-06-19T07:57:27;23.40;;;20.95;;
18931;SDS011;9598;50.954;3.112;2023-06-19T08:02:29;22.67;;;20.50;;
18931;SDS011;9598;50.954;3.112;2023-06-19T08:07:31;22.90;;;20.15;;
18931;SDS011;9598;50.954;3.112;2023-06-19T08:12:34;23.55;;;21.23;;
18931;SDS011;9598;50.954;3.112;2023-06-19T08:17:36;19.95;;;17.95;;
18931;SDS011;9598;50.954;3.112;2023-06-19T08:22:39;20.08;;;18.05;;
18931;SDS011;9598;50.954;3.112;2023-06-19T08:27:42;18.77;;;16.77;;
18931;SDS011;9598;50.954;3.112;2023-06-19T08:32:45;17.95;;;16.17;;
18931;SDS011;9598;50.954;3.112;2023-06-19T08:37:48;19.67;;;17.67;;
18931;SDS011;9598;50.954;3.112;2023-06-19T08:42:51;18.75;;;16.58;;
18931;SDS011;9598;50.954;3.112;2023-06-19T08:47:58;17.65;;;15.82;;
18931;SDS011;9598;50.954;3.112;2023-06-19T08:53:01;20.10;;;18.30;;
18931;SDS011;9598;50.954;3.112;2023-06-19T08:58:04;19.48;;;17.58;;
18931;SDS011;9598;50.954;3.112;2023-06-19T09:03:06;18.90;;;17.20;;
18931;SDS011;9598;50.954;3.112;2023-06-19T09:08:12;17.23;;;15.45;;
18931;SDS011;9598;50.954;3.112;2023-06-19T09:13:17;18.63;;;16.70;;
18931;SDS011;9598;50.954;3.112;2023-06-19T09:18:19;16.23;;;14.73;;
18931;SDS011;9598;50.954;3.112;2023-06-19T09:23:21;17.08;;;15.27;;
18931;SDS011;9598;50.954;3.112;2023-06-19T09:28:27;18.10;;;16.48;;
18931;SDS011;9598;50.954;3.112;2023-06-19T09:33:30;16.58;;;14.95;;
18931;SDS011;9598;50.954;3.112;2023-06-19T09:38:34;16.63;;;15.10;;
18931;SDS011;9598;50.954;3.112;2023-06-19T09:43:42;16.33;;;14.88;;
18931;SDS011;9598;50.954;3.112;2023-06-19T09:48:48;14.82;;;13.30;;
18931;SDS011;9598;50.954;3.112;2023-06-19T09:53:57;14.77;;;13.43;;
18931;SDS011;9598;50.954;3.112;2023-06-19T09:59:03;14.95;;;13.55;;
18931;SDS011;9598;50.954;3.112;2023-06-19T10:04:09;14.50;;;13.20;;
18931;SDS011;9598;50.954;3.112;2023-06-19T10:09:13;14.70;;;13.35;;
18931;SDS011;9598;50.954;3.112;2023-06-19T10:14:19;14.93;;;13.52;;
18931;SDS011;9598;50.954;3.112;2023-06-19T10:19:22;15.48;;;14.07;;
18931;SDS011;9598;50.954;3.112;2023-06-19T10:24:25;14.88;;;13.57;;
18931;SDS011;9598;50.954;3.112;2023-06-19T10:29:38;15.35;;;13.95;;
18931;SDS011;9598;50.954;3.112;2023-06-19T10:34:44;15.75;;;14.20;;
18931;SDS011;9598;50.954;3.112;2023-06-19T10:39:48;14.65;;;13.30;;
18931;SDS011;9598;50.954;3.112;2023-06-19T10:44:51;13.20;;;11.98;;
18931;SDS011;9598;50.954;3.112;2023-06-19T10:50:01;15.15;;;13.65;;
18931;SDS011;9598;50.954;3.112;2023-06-19T10:55:04;12.88;;;11.68;;
18931;SDS011;9598;50.954;3.112;2023-06-19T11:00:08;11.88;;;10.85;;
18931;SDS011;9598;50.954;3.112;2023-06-19T11:05:15;10.98;;;9.98;;
18931;SDS011;9598;50.954;3.112;2023-06-19T11:10:18;12.55;;;11.23;;
18931;SDS011;9598;50.954;3.112;2023-06-19T11:15:28;12.07;;;11.00;;
18931;SDS011;9598;50.954;3.112;2023-06-19T11:20:42;13.13;;;11.85;;
18931;SDS011;9598;50.954;3.112;2023-06-19T11:25:45;11.80;;;10.68;;
18931;SDS011;9598;50.954;3.112;2023-06-19T11:30:48;10.93;;;9.98;;
18931;SDS011;9598;50.954;3.112;2023-06-19T11:36:00;9.70;;;8.90;;
18931;SDS011;9598;50.954;3.112;2023-06-19T11:41:04;10.90;;;9.90;;
18931;SDS011;9598;50.954;3.112;2023-06-19T11:46:10;9.95;;;8.95;;
18931;SDS011;9598;50.954;3.112;2023-06-19T11:51:12;9.93;;;9.02;;
18931;SDS011;9598;50.954;3.112;2023-06-19T11:56:17;9.23;;;8.38;;
18931;SDS011;9598;50.954;3.112;2023-06-19T12:01:20;9.65;;;8.75;;
18931;SDS011;9598;50.954;3.112;2023-06-19T12:06:23;9.43;;;8.52;;
18931;SDS011;9598;50.954;3.112;2023-06-19T12:11:25;9.70;;;8.73;;
18931;SDS011;9598;50.954;3.112;2023-06-19T12:16:28;8.98;;;8.15;;
18931;SDS011;9598;50.954;3.112;2023-06-19T12:21:30;9.10;;;8.30;;
18931;SDS011;9598;50.954;3.112;2023-06-19T12:26:33;7.82;;;7.13;;
18931;SDS011;9598;50.954;3.112;2023-06-19T12:31:38;8.05;;;6.88;;
18931;SDS011;9598;50.954;3.112;2023-06-19T12:36:40;6.57;;;5.97;;
18931;SDS011;9598;50.954;3.112;2023-06-19T12:41:42;8.30;;;6.40;;
18931;SDS011;9598;50.954;3.112;2023-06-19T12:46:46;9.45;;;8.23;;
18931;SDS011;9598;50.954;3.112;2023-06-19T12:51:48;8.68;;;7.78;;
18931;SDS011;9598;50.954;3.112;2023-06-19T12:56:52;6.90;;;6.15;;
18931;SDS011;9598;50.954;3.112;2023-06-19T13:01:56;5.78;;;5.22;;
18931;SDS011;9598;50.954;3.112;2023-06-19T13:06:58;6.18;;;5.63;;
18931;SDS011;9598;50.954;3.112;2023-06-19T13:12:00;4.95;;;4.45;;
18931;SDS011;9598;50.954;3.112;2023-06-19T13:17:03;6.18;;;5.65;;
18931;SDS011;9598;50.954;3.112;2023-06-19T13:22:06;5.45;;;4.95;;
18931;SDS011;9598;50.954;3.112;2023-06-19T13:27:08;4.95;;;4.53;;
18931;SDS011;9598;50.954;3.112;2023-06-19T13:32:11;5.10;;;4.68;;
18931;SDS011;9598;50.954;3.112;2023-06-19T13:37:14;5.80;;;5.30;;
18931;SDS011;9598;50.954;3.112;2023-06-19T13:42:16;5.60;;;5.10;;
18931;SDS011;9598;50.954;3.112;2023-06-19T13:47:19;5.65;;;5.25;;
18931;SDS011;9598;50.954;3.112;2023-06-19T13:52:22;6.50;;;5.78;;
18931;SDS011;9598;50.954;3.112;2023-06-19T13:57:24;7.18;;;6.40;;
18931;SDS011;9598;50.954;3.112;2023-06-19T14:02:27;5.82;;;5.22;;
18931;SDS011;9598;50.954;3.112;2023-06-19T14:07:29;6.57;;;5.93;;
18931;SDS011;9598;50.954;3.112;2023-06-19T14:12:31;7.43;;;6.72;;
18931;SDS011;9598;50.954;3.112;2023-06-19T14:17:35;6.97;;;6.38;;
18931;SDS011;9598;50.954;3.112;2023-06-19T14:22:37;6.65;;;6.05;;
18931;SDS011;9598;50.954;3.112;2023-06-19T14:27:39;6.45;;;5.95;;
18931;SDS011;9598;50.954;3.112;2023-06-19T14:32:42;6.93;;;6.32;;
18931;SDS011;9598;50.954;3.112;2023-06-19T14:37:44;7.35;;;6.35;;
18931;SDS011;9598;50.954;3.112;2023-06-19T14:42:47;7.47;;;6.85;;
18931;SDS011;9598;50.954;3.112;2023-06-19T14:47:51;6.63;;;6.03;;
18931;SDS011;9598;50.954;3.112;2023-06-19T14:52:53;6.78;;;6.25;;
18931;SDS011;9598;50.954;3.112;2023-06-19T14:57:56;7.25;;;6.55;;
18931;SDS011;9598;50.954;3.112;2023-06-19T15:02:59;9.00;;;7.90;;
18931;SDS011;9598;50.954;3.112;2023-06-19T15:08:01;7.25;;;6.65;;
18931;SDS011;9598;50.954;3.112;2023-06-19T15:13:05;7.80;;;7.03;;
18931;SDS011;9598;50.954;3.112;2023-06-19T15:18:09;8.45;;;7.45;;
18931;SDS011;9598;50.954;3.112;2023-06-19T15:23:11;7.93;;;7.13;;
18931;SDS011;9598;50.954;3.112;2023-06-19T15:28:13;7.00;;;6.20;;
18931;SDS011;9598;50.954;3.112;2023-06-19T15:33:16;6.90;;;6.18;;
18931;SDS011;9598;50.954;3.112;2023-06-19T15:38:18;6.22;;;5.72;;
18931;SDS011;9598;50.954;3.112;2023-06-19T15:43:20;8.02;;;6.20;;
18931;SDS011;9598;50.954;3.112;2023-06-19T15:48:29;6.85;;;6.28;;
18931;SDS011;9598;50.954;3.112;2023-06-19T15:53:31;5.72;;;5.25;;
18931;SDS011;9598;50.954;3.112;2023-06-19T15:58:33;6.50;;;5.45;;
18931;SDS011;9598;50.954;3.112;2023-06-19T16:03:37;6.90;;;5.97;;
18931;SDS011;9598;50.954;3.112;2023-06-19T16:08:39;6.43;;;5.75;;
18931;SDS011;9598;50.954;3.112;2023-06-19T16:13:41;6.28;;;5.78;;
18931;SDS011;9598;50.954;3.112;2023-06-19T16:18:45;6.88;;;5.78;;
18931;SDS011;9598;50.954;3.112;2023-06-19T16:23:47;6.57;;;5.72;;
18931;SDS011;9598;50.954;3.112;2023-06-19T16:28:49;6.32;;;5.80;;
18931;SDS011;9598;50.954;3.112;2023-06-19T16:33:53;6.90;;;5.93;;
18931;SDS011;9598;50.954;3.112;2023-06-19T16:38:55;7.22;;;6.55;;
18931;SDS011;9598;50.954;3.112;2023-06-19T16:43:57;6.70;;;6.10;;
18931;SDS011;9598;50.954;3.112;2023-06-19T16:49:00;6.10;;;5.57;;
18931;SDS011;9598;50.954;3.112;2023-06-19T16:54:03;6.47;;;5.97;;
18931;SDS011;9598;50.954;3.112;2023-06-19T16:59:05;5.93;;;5.38;;
18931;SDS011;9598;50.954;3.112;2023-06-19T17:04:08;5.93;;;5.40;;
18931;SDS011;9598;50.954;3.112;2023-06-19T17:09:10;6.18;;;5.70;;
18931;SDS011;9598;50.954;3.112;2023-06-19T17:14:12;5.93;;;5.32;;
18931;SDS011;9598;50.954;3.112;2023-06-19T17:19:16;6.60;;;5.63;;
18931;SDS011;9598;50.954;3.112;2023-06-19T17:24:18;5.82;;;5.32;;
18931;SDS011;9598;50.954;3.112;2023-06-19T17:29:21;5.88;;;5.38;;
18931;SDS011;9598;50.954;3.112;2023-06-19T17:34:24;6.60;;;6.00;;
18931;SDS011;9598;50.954;3.112;2023-06-19T17:39:27;5.55;;;5.05;;
18931;SDS011;9598;50.954;3.112;2023-06-19T17:44:29;5.88;;;5.25;;
18931;SDS011;9598;50.954;3.112;2023-06-19T17:49:33;5.35;;;4.95;;
18931;SDS011;9598;50.954;3.112;2023-06-19T17:54:35;5.18;;;4.78;;
18931;SDS011;9598;50.954;3.112;2023-06-19T17:59:37;5.30;;;4.80;;
18931;SDS011;9598;50.954;3.112;2023-06-19T18:04:40;5.47;;;5.07;;
18931;SDS011;9598;50.954;3.112;2023-06-19T18:09:42;5.50;;;5.03;;
18931;SDS011;9598;50.954;3.112;2023-06-19T18:14:47;4.88;;;4.47;;
18931;SDS011;9598;50.954;3.112;2023-06-19T18:19:50;5.07;;;4.47;;
18931;SDS011;9598;50.954;3.112;2023-06-19T18:24:54;5.32;;;4.82;;
18931;SDS011;9598;50.954;3.112;2023-06-19T18:29:56;4.47;;;4.18;;
18931;SDS011;9598;50.954;3.112;2023-06-19T18:35:00;5.40;;;4.90;;
18931;SDS011;9598;50.954;3.112;2023-06-19T18:40:02;5.72;;;5.22;;
18931;SDS011;9598;50.954;3.112;2023-06-19T18:45:05;4.72;;;4.32;;
18931;SDS011;9598;50.954;3.112;2023-06-19T18:50:10;5.00;;;4.60;;
18931;SDS011;9598;50.954;3.112;2023-06-19T18:55:14;5.63;;;5.13;;
18931;SDS011;9598;50.954;3.112;2023-06-19T19:00:16;4.95;;;4.55;;
18931;SDS011;9598;50.954;3.112;2023-06-19T19:05:20;5.28;;;4.90;;
18931;SDS011;9598;50.954;3.112;2023-06-19T19:10:22;5.00;;;4.60;;
18931;SDS011;9598;50.954;3.112;2023-06-19T19:15:24;6.03;;;4.85;;
18931;SDS011;9598;50.954;3.112;2023-06-19T19:20:27;6.22;;;4.65;;
18931;SDS011;9598;50.954;3.112;2023-06-19T19:25:30;5.10;;;4.60;;
18931;SDS011;9598;50.954;3.112;2023-06-19T19:30:32;4.90;;;4.50;;
18931;SDS011;9598;50.954;3.112;2023-06-19T19:35:35;5.65;;;5.15;;
18931;SDS011;9598;50.954;3.112;2023-06-19T19:40:38;5.22;;;4.82;;
18931;SDS011;9598;50.954;3.112;2023-06-19T19:45:40;6.13;;;5.20;;
18931;SDS011;9598;50.954;3.112;2023-06-19T19:50:43;5.25;;;4.85;;
18931;SDS011;9598;50.954;3.112;2023-06-19T19:55:45;5.20;;;4.80;;
18931;SDS011;9598;50.954;3.112;2023-06-19T20:00:47;5.53;;;5.13;;
18931;SDS011;9598;50.954;3.112;2023-06-19T20:05:51;5.07;;;4.57;;
18931;SDS011;9598;50.954;3.112;2023-06-19T20:10:54;6.00;;;5.60;;
18931;SDS011;9598;50.954;3.112;2023-06-19T20:15:56;5.93;;;5.45;;
18931;SDS011;9598;50.954;3.112;2023-06-19T20:20:59;5.60;;;5.20;;
18931;SDS011;9598;50.954;3.112;2023-06-19T20:26:01;6.22;;;5.38;;
18931;SDS011;9598;50.954;3.112;2023-06-19T20:31:03;5.90;;;5.38;;
18931;SDS011;9598;50.954;3.112;2023-06-19T20:36:07;5.72;;;5.22;;
18931;SDS011;9598;50.954;3.112;2023-06-19T20:41:09;5.97;;;5.50;;
18931;SDS011;9598;50.954;3.112;2023-06-19T20:46:17;5.50;;;5.00;;
18931;SDS011;9598;50.954;3.112;2023-06-19T20:51:20;5.60;;;5.10;;
18931;SDS011;9598;50.954;3.112;2023-06-19T20:56:22;5.03;;;4.63;;
18931;SDS011;9598;50.954;3.112;2023-06-19T21:01:24;6.00;;;5.50;;
18931;SDS011;9598;50.954;3.112;2023-06-19T21:06:28;6.13;;;5.60;;
18931;SDS011;9598;50.954;3.112;2023-06-19T21:11:30;5.43;;;4.93;;
18931;SDS011;9598;50.954;3.112;2023-06-19T21:16:33;5.97;;;5.38;;
18931;SDS011;9598;50.954;3.112;2023-06-19T21:21:36;6.60;;;5.30;;
18931;SDS011;9598;50.954;3.112;2023-06-19T21:26:38;5.95;;;5.45;;
18931;SDS011;9598;50.954;3.112;2023-06-19T21:31:40;6.30;;;5.80;;
18931;SDS011;9598;50.954;3.112;2023-06-19T21:36:44;5.53;;;5.13;;
18931;SDS011;9598;50.954;3.112;2023-06-19T21:41:47;6.15;;;5.65;;
18931;SDS011;9598;50.954;3.112;2023-06-19T21:46:49;5.47;;;5.07;;
18931;SDS011;9598;50.954;3.112;2023-06-19T21:51:52;6.65;;;6.05;;
18931;SDS011;9598;50.954;3.112;2023-06-19T21:56:54;5.82;;;5.38;;
18931;SDS011;9598;50.954;3.112;2023-06-19T22:01:57;6.13;;;5.63;;
18931;SDS011;9598;50.954;3.112;2023-06-19T22:07:00;6.35;;;5.95;;
18931;SDS011;9598;50.954;3.112;2023-06-19T22:12:02;7.13;;;6.53;;
18931;SDS011;9598;50.954;3.112;2023-06-19T22:17:05;8.73;;;7.10;;
18931;SDS011;9598;50.954;3.112;2023-06-19T22:22:09;8.43;;;7.53;;
18931;SDS011;9598;50.954;3.112;2023-06-19T22:27:11;7.43;;;6.82;;
18931;SDS011;9598;50.954;3.112;2023-06-19T22:32:13;6.35;;;5.75;;
18931;SDS011;9598;50.954;3.112;2023-06-19T22:37:17;6.38;;;5.88;;
18931;SDS011;9598;50.954;3.112;2023-06-19T22:42:19;7.72;;;7.03;;
18931;SDS011;9598;50.954;3.112;2023-06-19T22:47:21;7.50;;;6.90;;
18931;SDS011;9598;50.954;3.112;2023-06-19T22:52:24;9.40;;;8.63;;
18931;SDS011;9598;50.954;3.112;2023-06-19T22:57:26;9.43;;;8.57;;
18931;SDS011;9598;50.954;3.112;2023-06-19T23:02:29;8.07;;;7.38;;
18931;SDS011;9598;50.954;3.112;2023-06-19T23:07:32;9.32;;;8.43;;
18931;SDS011;9598;50.954;3.112;2023-06-19T23:12:34;8.40;;;7.60;;
18931;SDS011;9598;50.954;3.112;2023-06-19T23:17:37;8.80;;;8.10;;
18931;SDS011;9598;50.954;3.112;2023-06-19T23:22:40;8.45;;;7.80;;
18931;SDS011;9598;50.954;3.112;2023-06-19T23:27:42;8.85;;;7.95;;
18931;SDS011;9598;50.954;3.112;2023-06-19T23:32:44;9.63;;;8.70;;
18931;SDS011;9598;50.954;3.112;2023-06-19T23:37:48;9.27;;;8.40;;
18931;SDS011;9598;50.954;3.112;2023-06-19T23:42:50;11.63;;;10.50;;
18931;SDS011;9598;50.954;3.112;2023-06-19T23:47:52;10.88;;;9.88;;
18931;SDS011;9598;50.954;3.112;2023-06-19T23:52:55;12.75;;;11.55;;
18931;SDS011;9598;50.954;3.112;2023-06-19T23:57:57;13.48;;;12.30;;
